sensor_id;sensor_type;location;lat;lon;timestamp;pressure;altitude;pressure_sealevel;temperature;humidity
74439;BME280;62869;52.632;29.748;2022-09-03T03:48:54;1032.5;;;10.9;62.8
74439;BME280;62869;52.632;29.748;2022-09-03T03:53:28;1033.5;;;8.6;65.4
74439;BME280;62869;52.632;29.748;2022-09-03T03:58:16;1033.5;;;8.6;65.9
74439;BME280;62869;52.632;29.748;2022-09-03T04:48:06;1033.5;;;8.6;65.9
74439;BME280;62869;52.632;29.748;2022-09-03T04:53:06;1033.2;;;21.5;37.9
74439;BME280;62869;52.632;29.748;2022-09-03T04:58:26;1033.2;;;21.5;37.9
74439;BME280;62869;52.632;29.748;2022-09-03T05:08:36;1033.3;;;22;35.2
74439;BME280;62869;52.632;29.748;2022-09-03T05:13:40;1033.3;;;22;35.2
74439;BME280;62869;52.632;29.748;2022-09-03T05:33:37;1033.1;;;27.2;28.8
74439;BME280;62869;52.632;29.748;2022-09-03T05:38:06;1033.2;;;28.3;26.9
74439;BME280;62869;52.632;29.748;2022-09-03T05:53:52;1033.1;;;29.1;24.2
74439;BME280;62869;52.632;29.748;2022-09-03T05:58:30;1033.2;;;28.5;24.2
74439;BME280;62869;52.632;29.748;2022-09-03T06:03:28;1033.3;;;26.1;26.5
74439;BME280;62869;52.632;29.748;2022-09-03T06:08:18;1033.3;;;25.9;26.7
74439;BME280;62869;52.632;29.748;2022-09-03T06:13:53;1033.3;;;26.8;24.8
74439;BME280;62869;52.632;29.748;2022-09-03T06:18:52;1033.3;;;26.8;24.8
74439;BME280;62869;52.632;29.748;2022-09-03T06:23:26;1033.3;;;26;26.4
74439;BME280;62869;52.632;29.748;2022-09-03T06:58:55;1033.2;;;26.3;25.8
74439;BME280;62869;52.632;29.748;2022-09-03T10:08:38;1032.5;;;27.1;20.2
74439;BME280;62869;52.632;29.748;2022-09-03T10:13:43;1032.5;;;27.3;20.4
74439;BME280;62869;52.632;29.748;2022-09-03T10:23:08;1032.4;;;27.4;20.2
74439;BME280;62869;52.632;29.748;2022-09-03T10:28:29;1032.4;;;27.6;19.2
74439;BME280;62869;52.632;29.748;2022-09-03T10:33:39;1032.3;;;27.9;19.4
74439;BME280;62869;52.632;29.748;2022-09-03T10:38:09;1032.3;;;28.1;19.2
74439;BME280;62869;52.632;29.748;2022-09-03T10:43:25;1032.2;;;28.1;19.2
74439;BME280;62869;52.632;29.748;2022-09-03T10:48:20;1032.1;;;27.9;19.3
74439;BME280;62869;52.632;29.748;2022-09-03T10:54:15;1032.1;;;27.9;19.4
74439;BME280;62869;52.632;29.748;2022-09-03T10:58:47;1032.1;;;27.6;19.6
74439;BME280;62869;52.632;29.748;2022-09-03T11:03:24;1032.1;;;27.2;19.6
74439;BME280;62869;52.632;29.748;2022-09-03T11:08:22;1032.1;;;26.3;20.3
74439;BME280;62869;52.632;29.748;2022-09-03T11:13:54;1032.1;;;25.7;20.9
74439;BME280;62869;52.632;29.748;2022-09-03T11:18:56;1032;;;25;21.6
74439;BME280;62869;52.632;29.748;2022-09-03T11:23:28;1032;;;24.4;22.1
74439;BME280;62869;52.632;29.748;2022-09-03T11:28:40;1032;;;24.2;22.5
74439;BME280;62869;52.632;29.748;2022-09-03T11:33:10;1031.9;;;24.5;22.5
74439;BME280;62869;52.632;29.748;2022-09-03T11:38:18;1031.9;;;24;22.9
74439;BME280;62869;52.632;29.748;2022-09-03T11:43:27;1031.9;;;23.2;23.9
74439;BME280;62869;52.632;29.748;2022-09-03T11:48:36;1031.8;;;22.7;24.4
74439;BME280;62869;52.632;29.748;2022-09-03T11:53:51;1031.8;;;22.5;25.1
74439;BME280;62869;52.632;29.748;2022-09-03T11:58:42;1031.7;;;22.4;25.2
74439;BME280;62869;52.632;29.748;2022-09-03T12:03:34;1031.6;;;22.7;25.4
74439;BME280;62869;52.632;29.748;2022-09-03T12:09:00;1031.7;;;22.9;25.3
74439;BME280;62869;52.632;29.748;2022-09-03T12:13:51;1031.6;;;22.4;25.4
74439;BME280;62869;52.632;29.748;2022-09-03T12:18:07;1031.5;;;22.4;25.4
74439;BME280;62869;52.632;29.748;2022-09-03T12:23:09;1031.5;;;22.4;25.4
74439;BME280;62869;52.632;29.748;2022-09-03T12:38:40;1031.3;;;22.6;25
74439;BME280;62869;52.632;29.748;2022-09-03T12:43:55;1031.3;;;22.6;25
74439;BME280;62869;52.632;29.748;2022-09-03T12:58:31;1031.3;;;22.6;25
74439;BME280;62869;52.632;29.748;2022-09-03T13:03:43;1031;;;23.7;23.9
74439;BME280;62869;52.632;29.748;2022-09-03T13:08:06;1031;;;23.8;23.4
74439;BME280;62869;52.632;29.748;2022-09-03T13:13:25;1031;;;23.9;23.3
74439;BME280;62869;52.632;29.748;2022-09-03T13:18:24;1030.9;;;24.2;23.3
74439;BME280;62869;52.632;29.748;2022-09-03T13:29:11;1030.9;;;24.2;22.8
74439;BME280;62869;52.632;29.748;2022-09-03T13:59:16;1030.9;;;24.2;22.8
74439;BME280;62869;52.632;29.748;2022-09-03T14:19:04;1030.9;;;23.2;23.9
74439;BME280;62869;52.632;29.748;2022-09-03T14:23:44;1030.8;;;22.3;25.4
74439;BME280;62869;52.632;29.748;2022-09-03T14:33:34;1030.8;;;22.3;25.4
74439;BME280;62869;52.632;29.748;2022-09-03T14:38:56;1030.8;;;22.3;25.4
74439;BME280;62869;52.632;29.748;2022-09-03T14:44:21;1030.8;;;22.3;25.4
74439;BME280;62869;52.632;29.748;2022-09-03T14:53:41;1030.8;;;22.3;25.4
74439;BME280;62869;52.632;29.748;2022-09-03T14:58:32;1030.8;;;22.3;25.4
74439;BME280;62869;52.632;29.748;2022-09-03T16:33:34;1030.5;;;19.4;33.6
74439;BME280;62869;52.632;29.748;2022-09-03T16:38:29;1030.5;;;19.2;34.7
74439;BME280;62869;52.632;29.748;2022-09-03T17:09:14;1030.7;;;17.7;39.3
74439;BME280;62869;52.632;29.748;2022-09-03T17:14:03;1030.7;;;17.7;39.3
74439;BME280;62869;52.632;29.748;2022-09-03T17:19:14;1030.8;;;17.3;39.9
74439;BME280;62869;52.632;29.748;2022-09-03T17:28:31;1030.9;;;17.1;40.5
74439;BME280;62869;52.632;29.748;2022-09-03T19:49:05;1031.4;;;14.1;53.3
74439;BME280;62869;52.632;29.748;2022-09-03T19:53:09;1031.4;;;13.9;56.9
74439;BME280;62869;52.632;29.748;2022-09-03T19:58:17;1031.4;;;13.9;56.9
74439;BME280;62869;52.632;29.748;2022-09-03T20:13:38;1031.4;;;13.9;56.9
74439;BME280;62869;52.632;29.748;2022-09-03T20:18:44;1031.4;;;13.7;56.4
74439;BME280;62869;52.632;29.748;2022-09-03T20:23:49;1031.4;;;13.7;56.4
74439;BME280;62869;52.632;29.748;2022-09-03T20:33:40;1031.4;;;13.7;56.4
74439;BME280;62869;52.632;29.748;2022-09-03T20:43:25;1031.5;;;13.9;54.6
74439;BME280;62869;52.632;29.748;2022-09-03T20:53:22;1031.5;;;13.9;54.6
74439;BME280;62869;52.632;29.748;2022-09-03T20:59:02;1031.6;;;14.3;56.3
74439;BME280;62869;52.632;29.748;2022-09-03T22:23:09;1031.6;;;14.6;53.4
74439;BME280;62869;52.632;29.748;2022-09-03T22:29:26;1031.6;;;14.6;53.7
74439;BME280;62869;52.632;29.748;2022-09-03T22:58:45;1031.6;;;14.6;53.7
74439;BME280;62869;52.632;29.748;2022-09-03T23:03:23;1031.7;;;14.7;55
74439;BME280;62869;52.632;29.748;2022-09-03T23:08:39;1031.7;;;14.6;55.5
74439;BME280;62869;52.632;29.748;2022-09-03T23:58:42;1031.8;;;14.3;56.9
